x

Southwest Hawaii - 215nm Ssw Of Hilo, Hi (51002) Wave Buoy

11:50pm - Sat 6th Feb 2016 All times are HST. -10 hours from GMT.

  • Sig Wave height 7.5ft
  • Swell Direction
  • Peak Period 10s
  • Average Period 8s
  • Wind
    11mph, 13mph gusts
  • Sea Temp 78°f
  • Air Temp 76°f
  • Sea Pressure 1014.8mb
  • Southwest Hawaii - 215nm Ssw Of Hilo, Hi
  • Southwest Hawaii - 215nm Ssw Of Hilo, Hi

More Historic Weather Station data

Upgrade to MSW Pro to gain access to the past 30 days of data for over 8000 Wavebouys and Weather Stations around the globe.

Join Pro

Comparision Forecast

View Surf forecast
   
Sat 02/06 11:50pm 7.5ft 10s 8s 11 13 mph 1014.8mb 78f 76f
10:50pm 6.5ft 9s 8s 9 11 mph 1014.9mb 78f 76f
9:50pm 7.5ft 10s 8s 9
mph
1014.9mb 78f 76f
8:50pm 7.5ft 10s 8s 7 9 mph 1014.5mb 78f 76f
7:50pm 7ft 10s 8s 7 9 mph 1013.7mb 78f 77f
6:50pm 7ft 10s 8s 9 11 mph 1012.9mb 78f 77f
5:50pm 7ft 10s 8s 9 11 mph 1012.6mb 78f 77f
4:50pm 6.5ft 9s 7s 9 11 mph 1012.2mb 78f 77f
3:50pm 7ft 9s 7s 9 11 mph 1012.3mb 78f 77f
2:50pm 6.5ft 8s 7s 7 11 mph 1012.4mb 78f 76f
1:50pm 7ft 10s 7s 13 16 mph 1012.6mb 78f 76f
12:50pm 7ft 10s 7s 11 13 mph 1013.5mb 78f 77f
11:50am 7ft 9s 7s 11 13 mph 1014.7mb 78f 77f
10:50am 8ft 9s 7s 13 16 mph 1015.6mb 78f 77f
9:50am 8ft 11s 7s 13 16 mph 1015.9mb 78f 77f
8:50am 7.5ft 11s 7s 11 16 mph 1015.2mb 77f 77f
7:50am 7ft 11s 7s 16 20 mph 1014.4mb 77f 77f
6:50am 7ft 10s 7s 11
mph
1014.4mb 77f 75f
5:50am 7ft 10s 7s 13 16 mph 1014.2mb 77f 74f
4:50am 7ft 10s 7s 13 18 mph 1014.2mb 77f 73f
3:50am 7ft 9s 7s 13 16 mph 1014.2mb 77f 76f
2:50am 7ft 11s 7s 16 18 mph 1014.3mb 77f 76f
1:50am 7ft 10s 7s 16 18 mph 1014.9mb 77f 77f
12:50am 6.5ft 10s 7s 16 20 mph 1015.3mb 78f 77f
Fri 02/05 11:50pm 6.5ft 10s 6s 16 18 mph 1015.3mb 78f 77f
10:50pm 6.5ft 10s 7s 16 20 mph 1015.2mb 78f 77f
9:50pm 6.5ft 10s 7s 18 20 mph 1015.1mb 78f 77f
8:50pm 6.5ft 9s 7s 16 18 mph 1014.7mb 78f 77f
7:50pm 6.5ft 10s 7s 16 18 mph 1014.2mb 78f 77f
6:50pm 7ft 10s 7s 7 9 mph 1013.8mb 78f 75f
5:50pm 6ft 9s 6s 18 25 mph 1013.2mb 78f 75f
4:50pm 7ft 10s 6s 9 11 mph 1012.5mb 78f 77f
3:50pm 7ft 11s 7s 13 16 mph 1012.2mb 78f 78f
2:50pm 6.5ft 9s 7s 13 16 mph 1012.5mb 78f 77f
12:50pm 6.5ft 10s 7s 16 18 mph 1013.8mb 78f 77f
11:50am 6ft 10s 6s 11 16 mph 1014.6mb 78f 77f
10:50am 6.5ft 9s 6s 13 16 mph 1015.4mb 78f 77f
9:50am 7ft 10s 7s 13 18 mph 1015.8mb 78f 77f
8:50am 7ft 9s 6s 16 18 mph 1015.4mb 78f 77f
7:50am 7.5ft 8s 7s 16 20 mph 1014.9mb 77f 77f
6:50am 7.5ft 10s 6s 18 22 mph 1014.3mb 77f 76f
5:50am 7.5ft 10s 6s 18 25 mph 1013.7mb 78f 77f
4:50am 8ft 9s 7s 18 22 mph 1013.5mb 78f 76f
3:50am 7.5ft 9s 7s 18 22 mph 1013.6mb 77f 77f
2:50am 7ft 10s 6s 18 22 mph 1014mb 77f 77f
1:50am 7.5ft 12s 6s 16 20 mph 1014.7mb 78f 75f
12:50am 8ft 9s 7s 18 22 mph 1015mb 78f 77f
Thu 02/04 11:50pm 8ft 9s 7s 20 25 mph 1015.1mb 78f 77f
10:50pm 7.5ft 10s 6s 22 27 mph 1015.2mb 78f 77f
9:50pm 7ft 9s 7s 20 25 mph 1015.1mb 78f 77f
8:50pm 7ft 12s 6s 20 25 mph 1014.9mb 78f 77f
7:50pm 7.5ft 9s 7s 18 22 mph 1014mb 78f 77f
6:50pm 7ft 10s 6s 18 22 mph 1013.3mb 78f 77f
5:50pm 7.5ft 12s 7s 18 20 mph 1012.6mb 78f 77f
4:50pm 7.5ft 12s 7s 18 20 mph 1012.1mb 78f 77f
3:50pm 7ft 13s 7s 16 20 mph 1012.2mb 78f 77f
2:50pm 7.5ft 13s 7s 18 20 mph 1012.4mb 78f 77f
1:50pm 8ft 12s 7s 16 18 mph 1012.8mb 78f 77f
12:50pm 8ft 13s 7s 16 20 mph 1013.7mb 78f 76f
11:50am 8ft 13s 7s 16 18 mph 1014.7mb 78f 77f
10:50am 8ft 13s 7s 18 22 mph 1015.4mb 78f 77f
9:50am 8ft 9s 7s 16 20 mph 1015.9mb 78f 77f
8:50am 9ft 13s 7s 11 13 mph 1015.6mb 77f 76f
7:50am 9ft 13s 7s 18 22 mph 1015mb 77f 76f
6:50am 8.5ft 13s 7s 18 20 mph 1014.7mb 77f 76f
5:50am 8ft 13s 7s 16 18 mph 1014mb 77f 76f
4:50am 9ft 14s 7s 18 20 mph 1013.5mb 77f 76f
3:50am 9.5ft 14s 8s 18 22 mph 1013.5mb 78f 76f
2:50am 9ft 13s 7s 18 22 mph 1013.6mb 78f 76f
1:50am 9ft 14s 7s 20 25 mph 1014.3mb 78f 76f
12:50am 9ft 14s 8s 20 25 mph 1015mb 78f 77f
Wed 02/03 9:50pm 9.5ft 10s 7s 18 22 mph 1015.5mb 78f 77f
8:50pm 10ft 14s 8s 20 25 mph 1015.1mb 78f 77f
7:50pm 9.5ft 14s 8s 18 22 mph 1014.7mb 78f 77f
6:50pm 8ft 14s 7s 18 20 mph 1014.1mb 78f 77f
5:50pm 9.5ft 14s 8s 18 22 mph 1013.6mb 78f 77f
4:50pm 11ft 15s 8s 18 20 mph 1012.9mb 78f 78f
3:50pm 10ft 15s 8s 18 20 mph 1012.8mb 78f 77f
2:50pm 9ft 15s 8s 18 22 mph 1012.9mb 78f 77f
1:50pm 8.5ft 15s 7s 18 20 mph 1013.4mb 78f 77f
12:50pm 10ft 14s 8s 18 20 mph 1014.3mb 78f 76f
11:50am 10ft 15s 8s 16 18 mph 1015.4mb 78f 77f
10:50am 11ft 15s 8s 18 22 mph 1016.2mb 78f 76f